Time;durP1;ratioP1;P1;durP2;ratioP2;P2;SDS_P1;SDS_P2;PMS_P1;PMS_P2;Temp;Humidity;BMP_temperature;BMP_pressure;BME280_temperature;BME280_humidity;BME280_pressure;Samples;Min_cycle;Max_cycle;Signal;HPM_P1;HPM_P2
2021/12/13 00:00:20;;;;;;;33.00;17.73;;;6.30;99.90;;;;;;5116136;28;20539;-68
2021/12/13 00:02:54;;;;;;;29.03;16.40;;;6.30;99.90;;;;;;5116428;28;20451;-67
2021/12/13 00:05:28;;;;;;;30.90;16.20;;;6.40;99.90;;;;;;5116462;28;20437;-67
2021/12/13 00:07:59;;;;;;;36.20;18.27;;;6.30;99.90;;;;;;5116700;28;20444;-67
2021/12/13 00:10:33;;;;;;;27.80;15.23;;;6.40;99.90;;;;;;5116438;28;20437;-67
2021/12/13 00:13:04;;;;;;;32.63;18.00;;;6.40;99.90;;;;;;5116571;28;20451;-67
2021/12/13 00:15:38;;;;;;;28.13;15.60;;;6.40;99.90;;;;;;5116020;28;20971;-67
2021/12/13 00:18:07;;;;;;;28.67;17.17;;;6.40;99.90;;;;;;5116081;28;20441;-67
2021/12/13 00:20:41;;;;;;;33.60;17.03;;;6.40;99.90;;;;;;5115836;28;20464;-66
2021/12/13 00:23:15;;;;;;;34.83;17.30;;;6.40;99.90;;;;;;5115369;28;20441;-67
2021/12/13 00:25:46;;;;;;;29.63;17.10;;;6.50;99.90;;;;;;5115347;28;20444;-67
2021/12/13 00:28:17;;;;;;;32.00;17.30;;;6.50;99.90;;;;;;5114968;28;20572;-67
2021/12/13 00:30:53;;;;;;;34.50;18.87;;;6.50;99.90;;;;;;5115168;28;20539;-67
2021/12/13 00:33:32;;;;;;;33.80;18.00;;;6.50;99.90;;;;;;5115262;28;20452;-67
2021/12/13 00:36:07;;;;;;;31.60;17.00;;;6.50;99.90;;;;;;5114968;28;20563;-66
2021/12/13 00:38:41;;;;;;;33.07;17.20;;;6.50;99.90;;;;;;5115348;28;20441;-67
2021/12/13 00:41:13;;;;;;;32.17;17.20;;;6.50;99.90;;;;;;5115284;28;20441;-66
2021/12/13 00:43:48;;;;;;;30.10;17.07;;;6.50;99.90;;;;;;5115856;28;20451;-67
2021/12/13 00:46:21;;;;;;;28.33;15.43;;;6.50;99.90;;;;;;5115190;28;20740;-67
2021/12/13 00:48:50;;;;;;;31.50;18.77;;;6.60;99.90;;;;;;5114976;28;20730;-67
2021/12/13 00:51:22;;;;;;;33.97;18.70;;;6.60;99.90;;;;;;5115617;28;20488;-67
2021/12/13 00:53:51;;;;;;;30.30;17.80;;;6.60;99.90;;;;;;5115425;28;20436;-67
2021/12/13 00:56:46;;;;;;;30.10;17.30;;;6.60;99.90;;;;;;5114814;28;20488;-67
2021/12/13 00:59:20;;;;;;;32.10;16.17;;;6.60;99.90;;;;;;5115399;28;20453;-67
2021/12/13 01:01:54;;;;;;;28.73;17.20;;;6.60;99.90;;;;;;5115110;28;20468;-67
2021/12/13 01:04:21;;;;;;;32.13;16.63;;;6.60;99.90;;;;;;5114720;28;20544;-67
2021/12/13 01:07:34;;;;;;;29.60;16.67;;;6.70;99.90;;;;;;5114852;28;20452;-67
2021/12/13 01:10:47;;;;;;;30.37;17.10;;;6.70;99.90;;;;;;5114568;28;20440;-67
2021/12/13 01:13:22;;;;;;;31.67;17.60;;;6.60;99.90;;;;;;5114490;28;20460;-67
2021/12/13 01:15:56;;;;;;;29.23;16.87;;;6.60;99.90;;;;;;5115087;28;20464;-66
2021/12/13 01:18:36;;;;;;;31.00;17.00;;;6.70;99.90;;;;;;5115308;28;20440;-67
2021/12/13 01:21:14;;;;;;;31.83;17.70;;;6.70;99.90;;;;;;5115110;28;20447;-67
2021/12/13 01:23:48;;;;;;;32.07;17.53;;;6.70;99.90;;;;;;5114341;28;20437;-67
2021/12/13 01:29:08;;;;;;;34.57;18.00;;;6.70;99.90;;;;;;5110649;28;20536;-67
2021/12/13 01:31:37;;;;;;;28.30;16.57;;;6.70;99.90;;;;;;5114593;28;20822;-67
2021/12/13 01:34:06;;;;;;;30.10;16.60;;;6.70;99.90;;;;;;5114578;28;20456;-67
2021/12/13 01:36:41;;;;;;;29.97;17.60;;;6.70;99.90;;;;;;5114562;28;20559;-67
2021/12/13 01:39:11;;;;;;;33.00;17.37;;;6.80;99.90;;;;;;5114625;28;20440;-67
2021/12/13 01:41:44;;;;;;;28.20;17.57;;;6.80;99.90;;;;;;5114220;28;20932;-66
2021/12/13 01:44:14;;;;;;;30.07;17.73;;;6.80;99.90;;;;;;5114005;28;20825;-67
2021/12/13 01:46:46;;;;;;;30.73;17.27;;;6.80;99.90;;;;;;5114721;28;20478;-67
2021/12/13 01:49:15;;;;;;;28.00;16.70;;;6.90;99.90;;;;;;5114542;28;20452;-67
2021/12/13 01:51:43;;;;;;;31.97;17.43;;;6.90;99.90;;;;;;5113945;28;20483;-66
2021/12/13 01:54:14;;;;;;;30.90;16.80;;;6.90;99.90;;;;;;5114341;28;20452;-67
2021/12/13 01:56:46;;;;;;;32.90;16.87;;;6.90;99.90;;;;;;5114466;28;20454;-67
2021/12/13 01:59:49;;;;;;;28.30;16.80;;;6.90;99.90;;;;;;5116637;28;20741;-67
2021/12/13 02:02:23;;;;;;;30.80;16.53;;;6.90;99.90;;;;;;5117772;28;20451;-67
2021/12/13 02:05:03;;;;;;;29.27;17.23;;;7.00;99.90;;;;;;5117814;27;20895;-67
2021/12/13 02:07:42;;;;;;;28.90;15.13;;;7.00;99.90;;;;;;5118138;28;20805;-67
2021/12/13 02:10:14;;;;;;;28.30;16.83;;;7.00;99.90;;;;;;5118075;28;20440;-67
2021/12/13 02:12:44;;;;;;;31.60;17.77;;;7.00;99.90;;;;;;5117978;27;20456;-68
2021/12/13 02:17:58;;;;;;;35.23;18.57;;;7.00;99.90;;;;;;5117632;28;20423;-67
2021/12/13 02:20:33;;;;;;;33.80;18.43;;;7.00;99.90;;;;;;5117700;28;20463;-67
2021/12/13 02:23:01;;;;;;;31.83;17.73;;;7.10;99.90;;;;;;5117786;28;20451;-67
2021/12/13 02:25:33;;;;;;;35.73;19.57;;;7.10;99.90;;;;;;5117358;28;20448;-68
2021/12/13 02:28:04;;;;;;;30.23;17.33;;;7.10;99.90;;;;;;5117571;27;20441;-67
2021/12/13 02:30:38;;;;;;;34.37;17.93;;;7.10;99.90;;;;;;5117492;28;20453;-68
2021/12/13 02:33:07;;;;;;;28.67;15.60;;;7.20;99.90;;;;;;5117357;28;20441;-67
2021/12/13 02:35:37;;;;;;;31.67;16.80;;;7.20;99.90;;;;;;5117070;28;20972;-68
2021/12/13 02:38:09;;;;;;;32.53;16.27;;;7.20;99.90;;;;;;5117233;28;20461;-68
2021/12/13 02:40:36;;;;;;;32.93;17.73;;;7.20;99.90;;;;;;5117259;28;20445;-68
2021/12/13 02:43:05;;;;;;;27.27;16.40;;;7.20;99.90;;;;;;5117298;28;20460;-67
2021/12/13 02:45:42;;;;;;;30.70;17.87;;;7.20;99.90;;;;;;5116964;28;20449;-67
2021/12/13 02:48:12;;;;;;;31.90;17.00;;;7.20;99.90;;;;;;5117109;28;20445;-67
2021/12/13 02:50:44;;;;;;;28.53;16.03;;;7.10;99.90;;;;;;5116919;28;20491;-67
2021/12/13 02:53:15;;;;;;;29.83;16.60;;;7.10;99.90;;;;;;5117838;28;20892;-67
2021/12/13 02:55:42;;;;;;;32.10;16.17;;;7.10;99.90;;;;;;5117447;28;20771;-67
2021/12/13 02:58:14;;;;;;;28.97;16.47;;;7.10;99.90;;;;;;5116863;28;20476;-67
2021/12/13 03:00:49;;;;;;;32.93;18.30;;;7.20;99.90;;;;;;5116988;28;20445;-67
2021/12/13 03:03:19;;;;;;;30.00;16.60;;;7.20;99.90;;;;;;5116495;28;20892;-67
2021/12/13 03:05:49;;;;;;;31.67;16.80;;;7.20;99.90;;;;;;5116768;28;20517;-67
2021/12/13 03:08:21;;;;;;;38.70;18.97;;;7.20;99.90;;;;;;5116596;28;20885;-67
2021/12/13 03:10:52;;;;;;;34.30;18.07;;;7.20;99.90;;;;;;5116528;28;20444;-67
2021/12/13 03:13:20;;;;;;;40.00;20.70;;;7.20;99.90;;;;;;5116575;28;20451;-67
2021/12/13 03:15:59;;;;;;;33.43;17.20;;;7.20;99.90;;;;;;5116206;28;20480;-67
2021/12/13 03:18:42;;;;;;;32.40;16.90;;;7.20;99.90;;;;;;5116366;28;20753;-67
2021/12/13 03:21:35;;;;;;;26.90;15.53;;;7.20;99.90;;;;;;5116460;28;20444;-67
2021/12/13 03:24:26;;;;;;;27.70;14.57;;;7.20;99.90;;;;;;5116607;28;20510;-67
2021/12/13 03:27:08;;;;;;;30.43;15.20;;;7.20;99.90;;;;;;5116287;28;20447;-67
2021/12/13 03:29:47;;;;;;;25.97;14.67;;;7.30;99.90;;;;;;5116605;28;20448;-67
2021/12/13 03:32:16;;;;;;;31.90;14.63;;;7.30;99.90;;;;;;5116484;28;20436;-67
2021/12/13 03:35:04;;;;;;;29.97;15.03;;;7.20;99.90;;;;;;5115865;28;20456;-67
2021/12/13 03:37:31;;;;;;;28.83;15.07;;;7.10;99.90;;;;;;5116376;28;20763;-67
2021/12/13 03:40:02;;;;;;;36.67;16.00;;;7.10;99.90;;;;;;5116180;28;20460;-67
2021/12/13 03:42:34;;;;;;;32.03;14.67;;;7.20;99.90;;;;;;5115914;28;20441;-67
2021/12/13 03:45:06;;;;;;;31.30;15.97;;;7.20;99.90;;;;;;5115785;28;20436;-67
2021/12/13 03:47:38;;;;;;;28.77;14.30;;;7.20;99.90;;;;;;5116046;28;20448;-67
2021/12/13 03:50:09;;;;;;;30.93;15.20;;;7.30;99.90;;;;;;5115748;28;20455;-67
2021/12/13 03:52:41;;;;;;;29.93;14.07;;;7.30;99.90;;;;;;5115778;28;20875;-67
2021/12/13 03:55:11;;;;;;;28.07;15.13;;;7.30;99.90;;;;;;5115653;28;20457;-67
2021/12/13 03:57:45;;;;;;;30.30;13.63;;;7.30;99.90;;;;;;5115891;27;20495;-67
2021/12/13 04:00:14;;;;;;;29.47;14.93;;;7.30;99.90;;;;;;5115529;28;20452;-67
2021/12/13 04:02:42;;;;;;;31.17;14.90;;;7.30;99.90;;;;;;5115878;28;20449;-67
2021/12/13 04:05:12;;;;;;;28.33;13.03;;;7.30;99.90;;;;;;5115709;28;20453;-67
2021/12/13 04:07:42;;;;;;;31.40;13.20;;;7.20;99.90;;;;;;5115976;28;20459;-67
2021/12/13 04:10:14;;;;;;;25.53;13.40;;;7.20;99.90;;;;;;5115619;28;20448;-67
2021/12/13 04:12:46;;;;;;;32.73;14.60;;;7.20;99.90;;;;;;5115721;28;20463;-67
2021/12/13 04:15:19;;;;;;;32.47;14.67;;;7.20;99.90;;;;;;5115653;28;20436;-67
2021/12/13 04:17:58;;;;;;;29.47;14.43;;;7.20;99.90;;;;;;5115474;27;20445;-67
2021/12/13 04:20:30;;;;;;;28.30;13.50;;;7.20;99.90;;;;;;5115289;28;20447;-67
2021/12/13 04:23:00;;;;;;;37.70;15.23;;;7.20;99.90;;;;;;5115041;28;20437;-67
2021/12/13 04:25:33;;;;;;;28.60;14.70;;;7.10;99.90;;;;;;5114940;28;20450;-67
2021/12/13 04:28:03;;;;;;;30.17;14.03;;;7.20;99.90;;;;;;5115320;28;20793;-67
2021/12/13 04:30:33;;;;;;;26.93;14.07;;;7.20;99.90;;;;;;5115073;28;20452;-67
2021/12/13 04:33:03;;;;;;;32.50;15.07;;;7.20;99.90;;;;;;5115365;28;20456;-67
2021/12/13 04:35:31;;;;;;;29.47;14.00;;;7.20;99.90;;;;;;5115103;28;20837;-67
2021/12/13 04:38:01;;;;;;;33.77;14.40;;;7.20;99.90;;;;;;5114652;28;20457;-67
2021/12/13 04:40:32;;;;;;;32.43;14.90;;;7.20;99.90;;;;;;5114983;28;20456;-67
2021/12/13 04:43:04;;;;;;;30.20;14.50;;;7.20;99.90;;;;;;5114655;28;20873;-67
2021/12/13 04:45:35;;;;;;;27.63;13.87;;;7.20;99.90;;;;;;5114879;28;20841;-67
2021/12/13 04:48:07;;;;;;;28.07;13.70;;;7.10;99.90;;;;;;5114495;28;20514;-67
2021/12/13 04:50:38;;;;;;;30.30;13.77;;;7.10;99.90;;;;;;5114699;28;20488;-67
2021/12/13 04:53:05;;;;;;;32.87;15.20;;;7.10;99.90;;;;;;5114923;28;20436;-67
2021/12/13 04:55:37;;;;;;;29.33;13.27;;;7.10;99.90;;;;;;5114869;28;20520;-67
2021/12/13 04:58:07;;;;;;;27.30;13.10;;;7.20;99.90;;;;;;5114808;28;20437;-67
2021/12/13 05:00:37;;;;;;;27.30;14.17;;;7.20;99.90;;;;;;5114917;28;20467;-68
2021/12/13 05:03:06;;;;;;;28.70;13.50;;;7.20;99.90;;;;;;5114421;28;20518;-67
2021/12/13 05:05:35;;;;;;;32.40;14.40;;;7.20;99.90;;;;;;5114447;28;20931;-67
2021/12/13 05:08:04;;;;;;;33.50;13.30;;;7.20;99.90;;;;;;5114578;28;20563;-67
2021/12/13 05:10:34;;;;;;;29.87;14.00;;;7.30;99.90;;;;;;5114627;28;20463;-67
2021/12/13 05:13:05;;;;;;;32.07;13.47;;;7.30;99.90;;;;;;5114583;28;20915;-67
2021/12/13 05:15:33;;;;;;;30.90;11.07;;;7.30;99.90;;;;;;5114315;28;20440;-67
2021/12/13 05:18:02;;;;;;;30.13;13.00;;;7.30;99.90;;;;;;5114712;28;20452;-67
2021/12/13 05:20:33;;;;;;;32.03;12.63;;;7.30;99.90;;;;;;5114698;28;20456;-67
2021/12/13 05:23:04;;;;;;;30.03;13.40;;;7.20;99.90;;;;;;5114954;28;20763;-67
2021/12/13 05:25:35;;;;;;;35.23;13.47;;;7.20;99.90;;;;;;5114322;28;20476;-67
2021/12/13 05:28:07;;;;;;;35.57;13.20;;;7.20;99.90;;;;;;5115111;28;20505;-67
2021/12/13 05:30:41;;;;;;;39.10;13.50;;;7.10;99.90;;;;;;5114689;28;20459;-67
2021/12/13 05:33:10;;;;;;;32.43;13.20;;;7.00;99.90;;;;;;5114440;28;20444;-68
2021/12/13 05:35:42;;;;;;;31.03;13.07;;;7.10;99.90;;;;;;5118220;28;20925;-68
2021/12/13 05:38:11;;;;;;;29.83;12.93;;;7.10;99.90;;;;;;5118464;28;20753;-67
2021/12/13 05:40:43;;;;;;;35.43;13.90;;;7.10;99.90;;;;;;5118357;28;20460;-67
2021/12/13 05:43:18;;;;;;;32.27;14.30;;;7.10;99.90;;;;;;5118772;28;20849;-67
2021/12/13 05:45:50;;;;;;;39.87;14.63;;;7.20;99.90;;;;;;5118460;28;20436;-67
2021/12/13 05:48:20;;;;;;;36.90;14.90;;;7.20;99.90;;;;;;5118363;28;20448;-67
2021/12/13 05:50:50;;;;;;;34.50;13.77;;;7.20;99.90;;;;;;5117798;27;20480;-67
2021/12/13 05:53:21;;;;;;;36.73;13.40;;;7.20;99.90;;;;;;5118181;28;20931;-67
2021/12/13 05:56:01;;;;;;;30.20;13.50;;;7.30;99.90;;;;;;5118117;28;20440;-67
2021/12/13 05:58:36;;;;;;;38.10;14.87;;;7.30;99.90;;;;;;5118503;28;20805;-67
2021/12/13 06:01:10;;;;;;;31.50;13.30;;;7.30;99.90;;;;;;5117957;28;20444;-67
2021/12/13 06:03:38;;;;;;;32.77;12.80;;;7.20;99.90;;;;;;5118106;28;20527;-67
2021/12/13 06:06:10;;;;;;;42.53;16.30;;;7.20;99.90;;;;;;5118321;27;20473;-67
2021/12/13 06:08:44;;;;;;;33.47;13.67;;;7.20;99.90;;;;;;5117879;28;20544;-67
2021/12/13 06:11:15;;;;;;;37.27;13.60;;;7.20;99.90;;;;;;5118137;28;20440;-67
2021/12/13 06:13:58;;;;;;;38.83;14.30;;;7.30;99.90;;;;;;5118632;27;20467;-67
2021/12/13 06:16:42;;;;;;;43.27;14.47;;;7.30;99.90;;;;;;5117985;28;20464;-67
2021/12/13 06:19:22;;;;;;;41.47;14.67;;;7.30;99.90;;;;;;5116487;28;20832;-67
2021/12/13 06:21:56;;;;;;;51.20;13.03;;;7.30;99.90;;;;;;5117649;28;20505;-67
2021/12/13 06:24:28;;;;;;;37.73;13.30;;;7.30;99.90;;;;;;5117250;28;20903;-67
2021/12/13 06:27:16;;;;;;;36.73;13.27;;;7.30;99.90;;;;;;5117609;28;20459;-67
2021/12/13 06:30:09;;;;;;;41.20;13.33;;;7.30;99.90;;;;;;5117829;28;20433;-68
2021/12/13 06:32:50;;;;;;;31.93;13.60;;;7.30;99.90;;;;;;5117668;27;20479;-68
2021/12/13 06:35:33;;;;;;;34.10;13.17;;;7.30;99.90;;;;;;5117991;27;20443;-67
2021/12/13 06:38:01;;;;;;;41.00;14.30;;;7.20;99.90;;;;;;5117382;28;20822;-69
2021/12/13 06:40:32;;;;;;;39.67;14.13;;;7.30;99.90;;;;;;5117057;28;20821;-67
2021/12/13 06:43:02;;;;;;;40.57;13.17;;;7.30;99.90;;;;;;5117327;28;20441;-67
2021/12/13 06:45:32;;;;;;;43.20;13.83;;;7.20;99.90;;;;;;5116635;28;20457;-68
2021/12/13 06:48:02;;;;;;;43.17;14.80;;;7.30;99.90;;;;;;5117209;28;20453;-68
2021/12/13 06:50:31;;;;;;;40.20;14.30;;;7.30;99.90;;;;;;5116935;28;20499;-67
2021/12/13 06:53:16;;;;;;;36.07;12.93;;;7.30;99.90;;;;;;5117301;27;20836;-67
2021/12/13 06:55:43;;;;;;;31.53;12.73;;;7.40;99.90;;;;;;5117980;28;20899;-66
2021/12/13 06:58:19;;;;;;;36.40;12.27;;;7.40;99.90;;;;;;5117330;28;20824;-68
2021/12/13 07:00:47;;;;;;;35.80;13.10;;;7.30;99.90;;;;;;5117898;28;20448;-68
2021/12/13 07:03:19;;;;;;;39.40;12.77;;;7.40;99.90;;;;;;5117490;28;20464;-68
2021/12/13 07:05:49;;;;;;;42.80;13.77;;;7.40;99.90;;;;;;5117564;28;20440;-67
2021/12/13 07:08:20;;;;;;;36.63;12.90;;;7.40;99.90;;;;;;5117089;28;20448;-67
2021/12/13 07:10:58;;;;;;;45.60;14.43;;;7.40;99.90;;;;;;5116734;28;20468;-67
2021/12/13 07:13:30;;;;;;;36.83;12.03;;;7.40;99.90;;;;;;5116454;28;20443;-67
2021/12/13 07:15:59;;;;;;;40.33;13.60;;;7.40;99.90;;;;;;5116749;27;20544;-66
2021/12/13 07:18:30;;;;;;;43.57;13.53;;;7.40;99.90;;;;;;5116735;28;20889;-67
2021/12/13 07:21:04;;;;;;;40.90;13.73;;;7.40;99.90;;;;;;5116899;28;20859;-68
2021/12/13 07:23:55;;;;;;;40.47;14.07;;;7.40;99.90;;;;;;5117131;28;20824;-68
2021/12/13 07:26:34;;;;;;;41.10;13.53;;;7.40;99.90;;;;;;5116465;28;20791;-68
2021/12/13 07:29:07;;;;;;;43.43;14.60;;;7.40;99.90;;;;;;5116558;28;20469;-68
2021/12/13 07:31:34;;;;;;;46.53;15.40;;;7.40;99.90;;;;;;5116569;28;20482;-67
2021/12/13 07:34:10;;;;;;;47.87;13.83;;;7.40;99.90;;;;;;5115951;28;20467;-67
2021/12/13 07:36:36;;;;;;;37.10;13.40;;;7.50;99.90;;;;;;5115544;28;20984;-67
2021/12/13 07:39:10;;;;;;;44.97;14.80;;;7.50;99.90;;;;;;5116477;28;20633;-67
2021/12/13 07:41:44;;;;;;;43.80;13.90;;;7.50;99.90;;;;;;5117203;28;20441;-67
2021/12/13 07:44:26;;;;;;;42.20;13.73;;;7.50;99.90;;;;;;5117281;28;20445;-67
2021/12/13 07:47:00;;;;;;;38.80;13.37;;;7.50;99.90;;;;;;5116823;28;20440;-69
2021/12/13 07:49:32;;;;;;;40.97;13.37;;;7.50;99.90;;;;;;5116095;28;20448;-68
2021/12/13 07:52:00;;;;;;;41.17;13.93;;;7.50;99.90;;;;;;5115682;28;20491;-69
2021/12/13 07:54:28;;;;;;;40.37;14.00;;;7.50;99.90;;;;;;5116152;28;20533;-67
2021/12/13 07:56:58;;;;;;;48.77;14.47;;;7.50;99.90;;;;;;5114671;28;20472;-67
2021/12/13 07:59:29;;;;;;;36.20;13.23;;;7.50;99.90;;;;;;5115839;28;20889;-68
2021/12/13 08:02:02;;;;;;;37.60;13.20;;;7.50;99.90;;;;;;5115345;28;20448;-68
2021/12/13 08:04:32;;;;;;;38.47;13.23;;;7.60;99.90;;;;;;5115575;28;20441;-68
2021/12/13 08:07:07;;;;;;;36.90;12.97;;;7.60;99.90;;;;;;5115561;28;20823;-68
2021/12/13 08:09:40;;;;;;;37.90;13.83;;;7.60;99.90;;;;;;5115071;28;20437;-67
2021/12/13 08:12:17;;;;;;;39.37;14.00;;;7.70;99.90;;;;;;5115295;28;20452;-68
2021/12/13 08:14:48;;;;;;;46.20;15.37;;;7.70;99.90;;;;;;5115385;28;20436;-68
2021/12/13 08:17:18;;;;;;;41.40;13.70;;;7.70;99.90;;;;;;5115022;28;20469;-67
2021/12/13 08:19:51;;;;;;;38.73;13.93;;;7.60;99.90;;;;;;5115263;28;20441;-68
2021/12/13 08:22:20;;;;;;;40.30;13.17;;;7.60;99.90;;;;;;5115526;28;20441;-67
2021/12/13 08:24:54;;;;;;;38.50;14.30;;;7.50;99.90;;;;;;5115072;28;20551;-67
2021/12/13 08:27:30;;;;;;;41.37;14.33;;;7.60;99.90;;;;;;5114815;28;20444;-68
2021/12/13 08:30:10;;;;;;;38.33;13.17;;;7.60;99.90;;;;;;5115067;28;20444;-68
2021/12/13 08:32:38;;;;;;;40.30;14.60;;;7.60;99.90;;;;;;5114611;28;20436;-68
2021/12/13 08:35:07;;;;;;;54.60;15.30;;;7.60;99.90;;;;;;5115370;28;20452;-68
2021/12/13 08:37:39;;;;;;;46.57;15.80;;;7.50;99.90;;;;;;5115255;28;20940;-69
2021/12/13 08:40:11;;;;;;;41.60;14.30;;;7.50;99.90;;;;;;5115227;28;20466;-68
2021/12/13 08:42:40;;;;;;;39.40;13.43;;;7.50;99.90;;;;;;5114552;28;20978;-68
2021/12/13 08:45:16;;;;;;;38.70;13.60;;;7.50;99.90;;;;;;5114654;28;20456;-68
2021/12/13 08:47:50;;;;;;;33.90;12.87;;;7.60;99.90;;;;;;5114609;28;20899;-68
2021/12/13 08:50:23;;;;;;;32.87;13.60;;;7.70;99.90;;;;;;5114570;28;20896;-67
2021/12/13 08:52:55;;;;;;;31.47;12.50;;;7.80;99.90;;;;;;5114526;28;20440;-66
2021/12/13 08:55:27;;;;;;;34.47;12.47;;;7.80;99.90;;;;;;5114745;28;20782;-67
2021/12/13 08:58:02;;;;;;;28.77;12.60;;;7.90;99.90;;;;;;5114829;28;20533;-69
2021/12/13 09:00:37;;;;;;;32.07;13.60;;;7.90;99.90;;;;;;5114770;28;20497;-67
2021/12/13 09:03:32;;;;;;;25.63;12.33;;;8.00;99.90;;;;;;5114433;28;20907;-68
2021/12/13 09:06:13;;;;;;;35.63;12.70;;;8.00;99.90;;;;;;5115532;28;20449;-69
2021/12/13 09:08:44;;;;;;;28.47;11.90;;;8.10;99.90;;;;;;5118279;28;20748;-68
2021/12/13 09:11:24;;;;;;;31.70;12.63;;;8.10;99.90;;;;;;5119868;28;20440;-69
2021/12/13 09:13:53;;;;;;;29.73;12.17;;;8.00;99.90;;;;;;5119388;28;20795;-68
2021/12/13 09:16:28;;;;;;;26.33;11.87;;;7.90;99.90;;;;;;5119411;28;20543;-69
2021/12/13 09:19:17;;;;;;;28.60;12.47;;;7.80;99.90;;;;;;5119214;28;20986;-69
2021/12/13 09:21:47;;;;;;;31.17;12.40;;;7.80;99.90;;;;;;5119285;28;20436;-67
2021/12/13 09:24:32;;;;;;;28.40;13.17;;;7.80;99.90;;;;;;5118939;28;20436;-69
2021/12/13 09:27:16;;;;;;;27.37;12.30;;;7.90;99.90;;;;;;5119326;28;20437;-69
2021/12/13 09:29:57;;;;;;;24.00;12.20;;;7.90;99.90;;;;;;5119311;28;20448;-67
2021/12/13 09:32:33;;;;;;;29.87;12.00;;;8.00;99.90;;;;;;5119810;28;20440;-69
2021/12/13 09:35:19;;;;;;;25.27;12.17;;;8.00;99.90;;;;;;5119279;27;20894;-69
2021/12/13 09:37:46;;;;;;;24.30;10.73;;;8.10;99.90;;;;;;5119887;28;20469;-69
2021/12/13 09:40:15;;;;;;;20.80;10.57;;;8.20;99.90;;;;;;5118454;27;20475;-68
2021/12/13 09:42:48;;;;;;;32.27;11.00;;;8.20;99.90;;;;;;5119852;28;20500;-69
2021/12/13 09:45:22;;;;;;;22.07;10.70;;;8.30;99.90;;;;;;5119283;28;20452;-68
2021/12/13 09:47:50;;;;;;;23.37;11.63;;;8.30;99.90;;;;;;5119324;28;20446;-68
2021/12/13 09:50:20;;;;;;;20.50;9.30;;;8.40;99.90;;;;;;5119100;28;20779;-69
2021/12/13 09:52:51;;;;;;;18.70;9.97;;;8.40;99.90;;;;;;5119762;28;20447;-69
2021/12/13 09:55:21;;;;;;;16.80;8.90;;;8.30;99.90;;;;;;5119029;27;20540;-70
2021/12/13 09:57:53;;;;;;;18.07;8.67;;;8.40;99.90;;;;;;5119756;28;20484;-69
2021/12/13 10:00:24;;;;;;;28.47;9.97;;;8.40;99.90;;;;;;5117953;28;20447;-69
2021/12/13 10:02:57;;;;;;;14.43;8.47;;;8.40;99.90;;;;;;5118883;28;20451;-69
2021/12/13 10:05:29;;;;;;;17.17;8.93;;;8.40;99.90;;;;;;5118519;28;20441;-68
2021/12/13 10:08:04;;;;;;;24.57;9.70;;;8.40;99.90;;;;;;5118617;27;20747;-68
2021/12/13 10:10:38;;;;;;;22.53;9.60;;;8.30;99.90;;;;;;5118196;27;20478;-69
2021/12/13 10:13:08;;;;;;;23.60;10.37;;;8.30;99.90;;;;;;5118321;27;20445;-69
2021/12/13 10:15:38;;;;;;;17.77;8.93;;;8.20;99.90;;;;;;5118636;27;20467;-68
2021/12/13 10:18:13;;;;;;;21.93;9.90;;;8.30;99.90;;;;;;5117924;28;20484;-68
2021/12/13 10:20:43;;;;;;;18.50;9.10;;;8.20;99.90;;;;;;5118218;28;20440;-69
2021/12/13 10:23:13;;;;;;;17.73;10.07;;;8.20;99.90;;;;;;5118886;28;20452;-69
2021/12/13 10:25:44;;;;;;;19.73;9.47;;;8.30;99.90;;;;;;5118929;27;20437;-69
2021/12/13 10:28:14;;;;;;;19.60;10.40;;;8.30;99.90;;;;;;5118349;28;20466;-69
2021/12/13 10:30:47;;;;;;;16.73;9.10;;;8.30;99.90;;;;;;5117458;28;20444;-69
2021/12/13 10:33:16;;;;;;;15.30;9.00;;;8.30;99.90;;;;;;5118787;28;20505;-69
2021/12/13 10:35:45;;;;;;;21.57;10.23;;;8.30;99.90;;;;;;5118584;28;20467;-69
2021/12/13 10:38:15;;;;;;;22.43;10.60;;;8.40;99.90;;;;;;5117466;28;20472;-68
2021/12/13 10:40:45;;;;;;;25.40;10.90;;;8.40;99.90;;;;;;5117951;28;20459;-69
2021/12/13 10:43:17;;;;;;;26.87;10.73;;;8.40;99.90;;;;;;5117583;28;20444;-69
2021/12/13 10:45:47;;;;;;;26.30;11.73;;;8.50;99.90;;;;;;5118305;28;20440;-69
2021/12/13 10:48:17;;;;;;;21.70;10.30;;;8.50;99.90;;;;;;5118132;28;20444;-70
2021/12/13 10:50:48;;;;;;;23.90;11.17;;;8.60;99.90;;;;;;5117224;28;20484;-69
2021/12/13 10:53:18;;;;;;;19.97;10.33;;;8.50;99.90;;;;;;5118069;28;20440;-67
2021/12/13 10:55:50;;;;;;;23.57;11.53;;;8.60;99.90;;;;;;5117761;28;20533;-69
2021/12/13 10:58:21;;;;;;;22.63;11.20;;;8.60;99.90;;;;;;5118064;28;20507;-69
2021/12/13 11:00:50;;;;;;;26.00;11.50;;;8.60;99.90;;;;;;5118056;28;20451;-68
2021/12/13 11:03:21;;;;;;;25.57;11.10;;;8.60;99.90;;;;;;5118297;28;20547;-68
2021/12/13 11:05:49;;;;;;;28.13;11.20;;;8.60;99.90;;;;;;5118751;28;20437;-69
2021/12/13 11:08:18;;;;;;;21.67;11.23;;;8.60;99.90;;;;;;5118691;28;20552;-69
2021/12/13 11:10:48;;;;;;;29.23;12.30;;;8.70;99.90;;;;;;5118647;27;20468;-70
2021/12/13 11:13:15;;;;;;;22.53;10.50;;;8.70;99.90;;;;;;5118404;28;20448;-69
2021/12/13 11:15:46;;;;;;;20.57;9.93;;;8.70;99.90;;;;;;5117486;28;20456;-68
2021/12/13 11:18:15;;;;;;;26.67;11.77;;;8.70;99.90;;;;;;5117559;28;20477;-68
2021/12/13 11:20:48;;;;;;;30.20;12.30;;;8.60;99.90;;;;;;5116615;27;20452;-68
2021/12/13 11:23:19;;;;;;;23.00;12.10;;;8.70;99.90;;;;;;5116312;28;20452;-70
2021/12/13 11:25:49;;;;;;;29.50;11.07;;;8.70;99.90;;;;;;5116889;28;20448;-69
2021/12/13 11:28:18;;;;;;;25.17;12.30;;;8.80;99.90;;;;;;5116036;28;20447;-69
2021/12/13 11:30:47;;;;;;;25.27;10.80;;;8.80;99.90;;;;;;5115471;28;20555;-68
2021/12/13 11:34:00;;;;;;;21.47;11.67;;;8.80;99.90;;;;;;5116155;28;20460;-69
2021/12/13 11:36:48;;;;;;;27.30;12.83;;;8.90;99.90;;;;;;5116046;28;20437;-68
2021/12/13 11:39:42;;;;;;;19.50;10.77;;;8.90;99.90;;;;;;5116317;28;20774;-69
2021/12/13 11:42:59;;;;;;;23.70;12.50;;;9.00;99.90;;;;;;5113449;28;20468;-69
2021/12/13 11:46:23;;;;;;;23.60;12.63;;;9.00;99.90;;;;;;5092029;28;20467;-70
2021/12/13 11:49:16;;;;;;;25.40;13.73;;;9.00;99.90;;;;;;5116205;28;20460;-69
2021/12/13 11:52:06;;;;;;;23.80;12.33;;;9.10;99.90;;;;;;5115310;28;20483;-69
2021/12/13 11:54:47;;;;;;;23.33;12.93;;;9.10;99.90;;;;;;5115955;28;20770;-69
2021/12/13 11:57:48;;;;;;;30.00;16.07;;;9.10;99.90;;;;;;5115641;28;20443;-69
2021/12/13 12:00:44;;;;;;;24.40;13.37;;;9.20;99.90;;;;;;5101973;28;20444;-69
2021/12/13 12:03:47;;;;;;;23.90;13.47;;;9.20;99.90;;;;;;5116132;28;20452;-69
2021/12/13 12:07:05;;;;;;;25.30;13.77;;;9.20;99.90;;;;;;5115185;28;20448;-69
2021/12/13 12:10:06;;;;;;;26.77;13.40;;;9.20;99.90;;;;;;5115303;28;20429;-68
2021/12/13 12:12:50;;;;;;;21.93;13.00;;;9.20;99.90;;;;;;5115518;28;20440;-68
2021/12/13 12:15:18;;;;;;;22.27;13.53;;;9.30;99.90;;;;;;5115505;28;20765;-68
2021/12/13 12:17:45;;;;;;;21.40;14.00;;;9.20;99.90;;;;;;5115532;28;20449;-69
2021/12/13 12:20:17;;;;;;;22.00;12.83;;;9.20;99.90;;;;;;5115711;28;20467;-69
2021/12/13 12:22:52;;;;;;;24.60;12.90;;;9.30;99.90;;;;;;5115281;28;20436;-69
2021/12/13 12:25:20;;;;;;;29.70;14.53;;;9.40;99.90;;;;;;5115663;28;20444;-69
2021/12/13 12:27:48;;;;;;;19.57;10.90;;;9.40;99.90;;;;;;5115299;28;20780;-68
2021/12/13 12:30:19;;;;;;;23.40;14.00;;;9.50;99.90;;;;;;5115476;28;20761;-69
2021/12/13 12:32:50;;;;;;;20.97;12.83;;;9.50;99.90;;;;;;5115378;28;20441;-68
2021/12/13 12:35:21;;;;;;;23.70;12.70;;;9.50;99.90;;;;;;5114615;28;20545;-68
2021/12/13 12:38:20;;;;;;;17.83;10.90;;;9.50;99.90;;;;;;5114621;28;20448;-68
2021/12/13 12:40:53;;;;;;;17.17;10.27;;;9.50;99.90;;;;;;5123317;28;20437;-68
2021/12/13 12:43:22;;;;;;;20.67;11.10;;;9.50;99.90;;;;;;5114369;28;20443;-68
2021/12/13 12:45:53;;;;;;;14.60;9.60;;;9.50;99.90;;;;;;5114749;28;20460;-68
2021/12/13 12:48:26;;;;;;;16.27;10.23;;;9.50;99.90;;;;;;5114249;28;20452;-67
2021/12/13 12:51:08;;;;;;;17.27;8.77;;;9.50;99.90;;;;;;5114880;28;20483;-68
2021/12/13 12:53:48;;;;;;;14.57;8.90;;;9.50;99.90;;;;;;5114578;28;20875;-67
2021/12/13 12:56:19;;;;;;;13.53;8.23;;;9.40;99.90;;;;;;5114875;28;20436;-68
2021/12/13 12:58:52;;;;;;;14.63;8.43;;;9.40;99.90;;;;;;5114523;28;20822;-68
2021/12/13 13:01:22;;;;;;;16.90;8.93;;;9.40;99.90;;;;;;5114737;28;20778;-68
2021/12/13 13:03:52;;;;;;;13.27;8.37;;;9.40;99.90;;;;;;5115516;28;20783;-69
2021/12/13 13:06:24;;;;;;;16.90;9.67;;;9.40;99.90;;;;;;5114361;28;20547;-67
2021/12/13 13:08:55;;;;;;;21.83;10.97;;;9.50;99.90;;;;;;5114869;28;20460;-69
2021/12/13 13:11:29;;;;;;;17.17;10.57;;;9.50;99.90;;;;;;5114706;28;20456;-69
2021/12/13 13:14:10;;;;;;;18.00;11.50;;;9.50;99.90;;;;;;5115257;28;20541;-68
2021/12/13 13:16:41;;;;;;;21.50;12.80;;;9.50;99.90;;;;;;5116151;28;20516;-69
2021/12/13 13:19:10;;;;;;;19.07;12.23;;;9.50;99.90;;;;;;5118601;28;20517;-68